createdAt,value
2018-03-30T00:02:16.278Z,0.40
2018-03-30T00:04:44.042Z,0.40
2018-03-30T00:07:11.729Z,0.40
2018-03-30T00:09:52.199Z,0.30
2018-03-30T00:12:20.757Z,0.20
2018-03-30T00:14:48.423Z,0.20
2018-03-30T00:17:16.168Z,0.30
2018-03-30T00:19:43.826Z,0.30
2018-03-30T00:22:11.463Z,0.20
2018-03-30T00:24:39.096Z,0.20
2018-03-30T00:27:07.489Z,0.10
2018-03-30T00:29:35.937Z,0.10
2018-03-30T00:32:03.597Z,0.10
2018-03-30T00:34:31.243Z,0.10
2018-03-30T00:36:58.925Z,0.00
2018-03-30T00:39:26.666Z,0.00
2018-03-30T00:41:54.354Z,0.00
2018-03-30T00:44:22.036Z,0.00
2018-03-30T00:46:50.578Z,0.00
2018-03-30T00:49:18.256Z,0.00
2018-03-30T00:51:45.916Z,-0.10
2018-03-30T00:54:13.673Z,-0.20
2018-03-30T00:56:41.435Z,-0.20
2018-03-30T00:59:09.116Z,-0.20
2018-03-30T01:01:36.829Z,-0.20
2018-03-30T01:04:04.489Z,-0.20
2018-03-30T01:09:06.202Z,-0.30
2018-03-30T01:11:33.859Z,-0.30
2018-03-30T01:14:01.518Z,-0.20
2018-03-30T01:16:29.157Z,-0.20
2018-03-30T01:18:56.851Z,-0.10
2018-03-30T01:21:24.652Z,-0.10
2018-03-30T01:23:52.488Z,-0.10
2018-03-30T01:26:20.175Z,-0.20
2018-03-30T01:28:47.855Z,-0.20
2018-03-30T01:31:16.400Z,-0.20
2018-03-30T01:33:44.101Z,-0.20
2018-03-30T01:36:12.558Z,-0.30
2018-03-30T01:38:40.309Z,-0.30
2018-03-30T01:41:08.107Z,-0.30
2018-03-30T01:43:35.842Z,-0.30
2018-03-30T01:46:03.721Z,-0.20
2018-03-30T01:48:31.349Z,-0.30
2018-03-30T01:50:59.015Z,-0.30
2018-03-30T01:53:26.666Z,-0.30
2018-03-30T01:55:54.378Z,-0.20
2018-03-30T01:58:22.025Z,-0.20
2018-03-30T02:00:49.800Z,-0.30
2018-03-30T02:03:17.450Z,-0.20
2018-03-30T02:05:45.358Z,-0.10
2018-03-30T02:08:13.760Z,-0.20
2018-03-30T02:10:42.165Z,-0.20
2018-03-30T02:13:09.866Z,-0.20
2018-03-30T02:15:37.514Z,-0.20
2018-03-30T02:18:05.188Z,-0.20
2018-03-30T02:20:32.825Z,-0.30
2018-03-30T02:23:00.509Z,-0.20
2018-03-30T02:25:28.162Z,-0.20
2018-03-30T02:27:55.865Z,-0.30
2018-03-30T02:30:24.322Z,-0.40
2018-03-30T02:32:52.171Z,-0.40
2018-03-30T02:35:19.833Z,-0.40
2018-03-30T02:37:47.600Z,-0.40
2018-03-30T02:40:15.262Z,-0.40
2018-03-30T02:42:42.926Z,-0.50
2018-03-30T02:45:10.605Z,-0.40
2018-03-30T02:47:38.263Z,-0.40
2018-03-30T02:50:05.950Z,-0.30
2018-03-30T02:52:33.581Z,-0.30
2018-03-30T02:55:01.278Z,-0.20
2018-03-30T02:57:29.007Z,-0.20
2018-03-30T02:59:56.683Z,-0.10
2018-03-30T03:02:24.321Z,0.20
2018-03-30T03:04:52.099Z,0.10
2018-03-30T03:07:19.871Z,0.30
2018-03-30T03:09:47.585Z,0.40
2018-03-30T03:12:16.029Z,0.40
2018-03-30T03:14:43.794Z,0.30
2018-03-30T03:17:11.466Z,0.30
2018-03-30T03:19:39.111Z,0.10
2018-03-30T03:22:06.773Z,0.00
2018-03-30T03:24:34.437Z,-0.20
2018-03-30T03:27:02.117Z,-0.20
2018-03-30T03:29:29.772Z,-0.30
2018-03-30T03:31:57.405Z,-0.30
2018-03-30T03:34:25.041Z,-0.40
2018-03-30T03:36:52.759Z,-0.40
2018-03-30T03:39:20.404Z,-0.50
2018-03-30T03:41:48.073Z,-0.50
2018-03-30T03:44:15.713Z,-0.40
2018-03-30T03:46:43.397Z,-0.50
2018-03-30T03:49:11.082Z,-0.50
2018-03-30T03:51:38.820Z,-0.40
2018-03-30T03:54:06.461Z,-0.50
2018-03-30T03:56:34.141Z,-0.50
2018-03-30T03:59:01.777Z,-0.50
2018-03-30T04:01:29.461Z,-0.50
2018-03-30T04:03:57.154Z,-0.60
2018-03-30T04:06:24.949Z,-0.50
2018-03-30T04:08:53.393Z,-0.60
2018-03-30T04:11:21.053Z,-0.60
2018-03-30T04:13:48.734Z,-0.60
2018-03-30T04:16:16.376Z,-0.70
2018-03-30T04:18:44.040Z,-0.70
2018-03-30T04:21:11.697Z,-0.70
2018-03-30T04:23:39.464Z,-0.70
2018-03-30T04:26:07.102Z,-0.60
2018-03-30T04:28:35.001Z,-0.60
2018-03-30T04:31:02.650Z,-0.60
2018-03-30T04:33:30.293Z,-0.60
2018-03-30T04:35:57.970Z,-0.60
2018-03-30T04:38:25.605Z,-0.60
2018-03-30T04:40:54.233Z,-0.60
2018-03-30T04:43:21.893Z,-0.70
2018-03-30T04:45:49.561Z,-0.60
2018-03-30T04:48:17.230Z,-0.60
2018-03-30T04:50:44.869Z,-0.60
2018-03-30T04:53:12.558Z,-0.50
2018-03-30T04:55:40.311Z,-0.40
2018-03-30T04:58:07.970Z,-0.50
2018-03-30T05:00:35.654Z,-0.50
2018-03-30T05:03:03.405Z,-0.40
2018-03-30T05:05:31.168Z,-0.30
2018-03-30T05:07:58.845Z,-0.30
2018-03-30T05:10:26.477Z,-0.30
2018-03-30T05:12:54.124Z,-0.20
2018-03-30T05:15:21.766Z,-0.10
2018-03-30T05:17:50.219Z,0.00
2018-03-30T05:20:17.982Z,0.00
2018-03-30T05:22:45.651Z,0.10
2018-03-30T05:25:13.300Z,0.10
2018-03-30T05:27:40.975Z,0.20
2018-03-30T05:30:08.602Z,0.20
2018-03-30T05:32:36.282Z,0.30
2018-03-30T05:35:03.943Z,0.30
2018-03-30T05:37:31.727Z,0.30
2018-03-30T05:39:59.369Z,0.40
2018-03-30T05:42:27.041Z,0.40
2018-03-30T05:44:54.722Z,0.40
2018-03-30T05:47:22.468Z,0.50
2018-03-30T05:49:50.180Z,0.50
2018-03-30T05:52:17.813Z,0.60
2018-03-30T05:54:45.585Z,0.70
2018-03-30T05:57:13.990Z,0.80
2018-03-30T05:59:41.734Z,0.80
2018-03-30T06:02:10.198Z,1.00
2018-03-30T06:04:37.957Z,0.90
2018-03-30T06:07:05.607Z,1.00
2018-03-30T06:09:33.293Z,1.10
2018-03-30T06:12:00.941Z,1.10
2018-03-30T06:14:28.601Z,1.20
2018-03-30T06:16:56.229Z,1.20
2018-03-30T06:19:23.877Z,1.30
2018-03-30T06:21:52.407Z,1.40
2018-03-30T06:24:20.061Z,1.40
2018-03-30T06:26:47.720Z,1.50
2018-03-30T06:29:15.369Z,1.60
2018-03-30T06:31:43.014Z,1.70
2018-03-30T06:34:11.473Z,1.80
2018-03-30T06:36:39.121Z,1.80
2018-03-30T06:39:07.468Z,1.90
2018-03-30T06:41:35.672Z,2.00
2018-03-30T06:46:42.884Z,2.10
2018-03-30T06:49:11.526Z,2.20
2018-03-30T06:51:39.710Z,2.30
2018-03-30T06:54:08.096Z,2.40
2018-03-30T06:56:36.258Z,2.50
2018-03-30T06:59:04.648Z,2.50
2018-03-30T07:01:33.224Z,2.70
2018-03-30T07:04:01.634Z,2.60
2018-03-30T07:06:34.053Z,2.80
2018-03-30T07:09:02.022Z,2.90
2018-03-30T07:11:29.866Z,2.90
2018-03-30T07:13:57.687Z,2.90
2018-03-30T07:16:25.567Z,3.00
2018-03-30T07:18:53.245Z,3.10
2018-03-30T07:21:20.891Z,3.00
2018-03-30T07:23:48.845Z,3.10
2018-03-30T07:26:16.660Z,3.20
2018-03-30T07:28:44.748Z,3.30
2018-03-30T07:31:13.266Z,3.70
2018-03-30T07:33:41.092Z,3.60
2018-03-30T07:36:09.760Z,4.30
2018-03-30T07:38:37.479Z,4.30
2018-03-30T07:41:05.181Z,4.90
2018-03-30T07:43:32.867Z,5.10
2018-03-30T07:46:00.700Z,4.70
2018-03-30T07:48:28.390Z,5.50
2018-03-30T07:50:56.154Z,5.70
2018-03-30T07:53:23.797Z,5.40
2018-03-30T07:55:51.557Z,5.30
2018-03-30T07:58:19.192Z,5.60
2018-03-30T08:00:46.838Z,6.00
2018-03-30T08:03:15.052Z,6.60
2018-03-30T08:05:43.230Z,7.00
2018-03-30T08:08:11.010Z,7.10
2018-03-30T08:10:38.646Z,6.90
2018-03-30T08:13:06.435Z,6.80
2018-03-30T08:15:34.097Z,6.40
2018-03-30T08:18:02.189Z,6.70
2018-03-30T08:20:29.847Z,7.50
2018-03-30T08:22:57.596Z,7.20
2018-03-30T08:25:25.386Z,7.10
2018-03-30T08:27:53.126Z,7.20
2018-03-30T08:30:20.817Z,6.70
2018-03-30T08:32:48.548Z,6.70
2018-03-30T08:35:16.217Z,7.20
2018-03-30T08:37:43.923Z,6.80
2018-03-30T08:40:12.564Z,7.40
2018-03-30T08:42:40.937Z,7.40
2018-03-30T08:45:08.998Z,8.00
2018-03-30T08:47:36.695Z,7.60
2018-03-30T08:52:39.667Z,9.00
2018-03-30T08:55:08.675Z,8.90
2018-03-30T08:57:37.060Z,9.30
2018-03-30T09:00:06.473Z,10.10
2018-03-30T09:02:34.741Z,10.50
2018-03-30T09:05:02.809Z,10.80
2018-03-30T09:07:30.736Z,12.30
2018-03-30T09:09:59.421Z,11.50
2018-03-30T09:12:28.120Z,11.40
2018-03-30T09:14:56.757Z,10.90
2018-03-30T09:17:24.811Z,10.90
2018-03-30T09:19:52.706Z,11.10
2018-03-30T09:22:20.496Z,11.40
2018-03-30T09:24:48.992Z,11.20
2018-03-30T09:27:17.194Z,11.10
2018-03-30T09:32:23.914Z,11.00
2018-03-30T09:37:26.568Z,11.60
2018-03-30T09:39:54.443Z,11.30
2018-03-30T09:42:22.222Z,11.40
2018-03-30T09:44:50.199Z,11.30
2018-03-30T09:47:18.456Z,11.00
2018-03-30T09:49:46.267Z,10.90
2018-03-30T09:52:14.266Z,11.10
2018-03-30T09:54:43.106Z,10.70
2018-03-30T09:57:12.714Z,10.70
2018-03-30T09:59:40.634Z,11.10
2018-03-30T10:02:09.272Z,11.40
2018-03-30T10:04:42.904Z,11.30
2018-03-30T10:07:11.132Z,11.10
2018-03-30T10:09:39.317Z,11.20
2018-03-30T10:12:07.131Z,11.10
2018-03-30T10:14:34.802Z,11.30
2018-03-30T10:17:03.583Z,12.80
2018-03-30T10:19:31.470Z,12.70
2018-03-30T10:21:59.292Z,13.20
2018-03-30T10:24:26.978Z,13.20
2018-03-30T10:26:54.758Z,12.10
2018-03-30T10:29:23.633Z,12.40
2018-03-30T10:31:51.445Z,12.40
2018-03-30T10:34:19.317Z,12.40
2018-03-30T10:36:47.103Z,12.00
2018-03-30T10:39:14.938Z,12.40
2018-03-30T10:41:42.711Z,12.50
2018-03-30T10:44:10.934Z,12.10
2018-03-30T10:46:39.086Z,11.80
2018-03-30T10:49:07.027Z,12.00
2018-03-30T10:51:34.924Z,12.10
2018-03-30T10:54:02.992Z,12.20
2018-03-30T10:56:30.722Z,12.20
2018-03-30T10:58:59.427Z,12.20
2018-03-30T11:01:27.419Z,12.10
2018-03-30T11:03:55.275Z,12.80
2018-03-30T11:06:23.237Z,12.40
2018-03-30T11:08:51.076Z,12.40
2018-03-30T11:11:19.833Z,13.30
2018-03-30T11:13:47.811Z,13.30
2018-03-30T11:16:15.645Z,13.40
2018-03-30T11:18:43.502Z,12.80
2018-03-30T11:21:11.448Z,12.40
2018-03-30T11:23:40.146Z,13.40
2018-03-30T11:26:07.875Z,13.30
2018-03-30T11:28:35.699Z,13.30
2018-03-30T11:31:03.392Z,12.70
2018-03-30T11:33:31.638Z,12.80
2018-03-30T11:35:59.615Z,13.20
2018-03-30T11:38:27.678Z,13.50
2018-03-30T11:40:55.362Z,13.20
2018-03-30T11:43:23.532Z,13.10
2018-03-30T11:45:51.429Z,12.80
2018-03-30T11:48:19.282Z,12.60
2018-03-30T11:50:49.604Z,13.30
2018-03-30T11:53:17.969Z,12.70
2018-03-30T11:55:46.002Z,13.00
2018-03-30T11:58:15.148Z,12.60
2018-03-30T12:00:43.525Z,12.50
2018-03-30T12:03:11.845Z,12.70
2018-03-30T12:05:40.578Z,12.50
2018-03-30T12:08:09.791Z,12.50
2018-03-30T12:10:37.853Z,12.60
2018-03-30T12:13:06.231Z,12.70
2018-03-30T12:15:34.904Z,12.50
2018-03-30T12:18:02.751Z,12.30
2018-03-30T12:20:31.690Z,12.40
2018-03-30T12:23:00.382Z,12.40
2018-03-30T12:25:32.428Z,12.50
2018-03-30T12:28:01.027Z,12.60
2018-03-30T12:30:29.574Z,12.70
2018-03-30T12:32:58.780Z,12.30
2018-03-30T12:35:27.193Z,12.30
2018-03-30T12:37:55.561Z,12.50
2018-03-30T12:40:23.594Z,12.60
2018-03-30T12:42:52.333Z,12.70
2018-03-30T12:45:20.284Z,12.70
2018-03-30T12:47:48.212Z,12.90
2018-03-30T12:50:17.000Z,13.20
2018-03-30T12:52:45.226Z,12.80
2018-03-30T12:55:14.459Z,12.80
2018-03-30T12:57:43.157Z,12.60
2018-03-30T13:00:10.990Z,12.50
2018-03-30T13:02:38.923Z,12.70
2018-03-30T13:05:06.642Z,13.00
2018-03-30T13:07:34.641Z,13.10
2018-03-30T13:10:02.568Z,13.10
2018-03-30T13:12:30.754Z,13.20
2018-03-30T13:15:00.973Z,13.10
2018-03-30T13:17:28.801Z,13.10
2018-03-30T13:19:57.013Z,13.40
2018-03-30T13:22:27.747Z,13.30
2018-03-30T13:24:56.616Z,12.70
2018-03-30T13:27:26.654Z,12.80
2018-03-30T13:29:56.473Z,12.60
2018-03-30T13:32:31.710Z,12.50
2018-03-30T13:35:00.072Z,12.40
2018-03-30T13:37:28.249Z,12.70
2018-03-30T13:39:56.281Z,12.50
2018-03-30T13:42:24.483Z,12.40
2018-03-30T13:44:54.993Z,12.30
2018-03-30T13:47:24.399Z,12.20
2018-03-30T13:49:52.609Z,12.60
2018-03-30T13:52:38.305Z,12.50
2018-03-30T13:55:08.032Z,12.40
2018-03-30T13:57:49.944Z,12.70
2018-03-30T14:00:22.018Z,12.70
2018-03-30T14:03:01.062Z,12.60
2018-03-30T14:19:12.338Z,12.30
2018-03-30T14:21:54.427Z,12.70
2018-03-30T14:24:23.494Z,12.80
2018-03-30T14:26:55.454Z,12.50
2018-03-30T14:29:28.368Z,12.30
2018-03-30T14:32:17.173Z,12.20
2018-03-30T14:34:45.195Z,12.10
2018-03-30T14:37:16.930Z,12.20
2018-03-30T14:39:50.491Z,12.30
2018-03-30T14:42:21.474Z,12.30
2018-03-30T14:44:51.386Z,12.30
2018-03-30T14:47:19.500Z,12.30
2018-03-30T14:49:50.430Z,12.30
2018-03-30T15:06:16.735Z,12.30
2018-03-30T15:08:57.711Z,12.20
2018-03-30T15:11:44.256Z,12.30
2018-03-30T15:14:16.076Z,12.30
2018-03-30T15:30:42.858Z,11.90
2018-03-30T15:33:16.634Z,11.70
2018-03-30T15:35:48.498Z,11.70
2018-03-30T15:57:32.579Z,11.60
2018-03-30T16:00:01.468Z,11.60
2018-03-30T16:02:29.847Z,11.60
2018-03-30T16:04:59.764Z,11.50
2018-03-30T16:07:29.158Z,11.60
2018-03-30T16:10:15.968Z,11.50
2018-03-30T16:12:47.140Z,11.50
2018-03-30T16:15:15.506Z,11.30
2018-03-30T16:17:43.601Z,11.40
2018-03-30T16:20:14.669Z,11.40
2018-03-30T16:22:43.471Z,11.30
2018-03-30T16:25:11.541Z,11.30
2018-03-30T16:27:39.825Z,11.20
2018-03-30T16:30:08.320Z,11.20
2018-03-30T16:32:35.790Z,11.20
2018-03-30T16:51:40.694Z,11.00
2018-03-30T16:54:08.351Z,11.00
2018-03-30T16:56:36.197Z,10.90
2018-03-30T16:59:03.949Z,10.90
2018-03-30T17:01:31.521Z,10.90
2018-03-30T17:03:58.867Z,10.80
2018-03-30T17:06:26.155Z,10.80
2018-03-30T17:08:53.522Z,10.70
2018-03-30T17:11:24.828Z,10.60
2018-03-30T17:13:52.427Z,10.60
2018-03-30T17:16:20.980Z,10.50
2018-03-30T17:18:48.955Z,10.50
2018-03-30T17:21:21.226Z,10.50
2018-03-30T17:23:48.779Z,10.50
2018-03-30T17:26:16.321Z,10.40
2018-03-30T17:28:46.392Z,10.40
2018-03-30T17:31:14.429Z,10.30
2018-03-30T17:36:15.781Z,10.20
2018-03-30T17:38:43.765Z,10.30
2018-03-30T17:41:11.736Z,10.30
2018-03-30T17:43:39.472Z,10.20
2018-03-30T17:46:07.296Z,10.20
2018-03-30T17:48:35.074Z,10.10
2018-03-30T17:51:05.812Z,10.10
2018-03-30T17:53:34.014Z,10.10
2018-03-30T17:56:01.299Z,10.00
2018-03-30T17:58:28.666Z,9.80
2018-03-30T18:00:59.133Z,9.80
2018-03-30T18:03:27.726Z,9.80
2018-03-30T18:05:56.501Z,9.80
2018-03-30T18:08:24.352Z,9.70
2018-03-30T18:10:51.923Z,9.70
2018-03-30T18:13:21.205Z,9.60
2018-03-30T18:15:51.060Z,9.40
2018-03-30T18:18:19.504Z,9.40
2018-03-30T18:20:47.784Z,9.40
2018-03-30T18:23:16.508Z,9.40
2018-03-30T18:25:44.730Z,9.50
2018-03-30T18:28:21.728Z,9.40
2018-03-30T18:30:50.223Z,9.40
2018-03-30T18:33:18.568Z,9.20
2018-03-30T18:35:46.040Z,9.20
2018-03-30T18:38:13.380Z,9.20
2018-03-30T18:40:40.810Z,9.10
2018-03-30T18:43:08.133Z,9.00
2018-03-30T18:45:39.439Z,8.90
2018-03-30T18:48:07.857Z,8.90
2018-03-30T18:50:35.578Z,9.00
2018-03-30T18:53:05.369Z,8.90
2018-03-30T18:55:33.230Z,8.70
2018-03-30T18:58:01.695Z,8.60
2018-03-30T19:00:31.748Z,8.40
2018-03-30T19:02:59.192Z,8.50
2018-03-30T19:05:28.022Z,8.60
2018-03-30T19:07:56.676Z,8.60
2018-03-30T19:10:24.827Z,8.40
2018-03-30T19:12:53.164Z,8.30
2018-03-30T19:15:20.705Z,8.30
2018-03-30T19:17:48.386Z,8.40
2018-03-30T19:20:15.869Z,8.30
2018-03-30T19:22:43.004Z,8.20
2018-03-30T19:25:10.397Z,8.30
2018-03-30T19:27:38.285Z,8.20
2018-03-30T19:30:05.498Z,8.10
2018-03-30T19:32:33.143Z,8.20
2018-03-30T19:35:00.400Z,8.10
2018-03-30T19:37:27.648Z,8.10
2018-03-30T19:39:54.787Z,8.20
2018-03-30T19:42:22.098Z,8.20
2018-03-30T19:44:50.038Z,8.10
2018-03-30T19:47:18.014Z,8.10
2018-03-30T19:49:45.295Z,8.00
2018-03-30T19:52:13.624Z,7.90
2018-03-30T19:54:41.233Z,7.90
2018-03-30T19:57:09.871Z,7.90
2018-03-30T19:59:37.336Z,7.90
2018-03-30T20:02:04.599Z,7.90
2018-03-30T20:04:32.154Z,8.00
2018-03-30T20:06:59.636Z,7.90
2018-03-30T20:09:27.013Z,7.80
2018-03-30T20:11:54.345Z,7.80
2018-03-30T20:14:21.482Z,7.80
2018-03-30T20:16:48.664Z,7.70
2018-03-30T20:19:16.614Z,7.60
2018-03-30T20:21:43.978Z,7.60
2018-03-30T20:24:11.173Z,7.70
2018-03-30T20:26:38.457Z,7.70
2018-03-30T20:29:05.656Z,7.70
2018-03-30T20:31:33.614Z,7.40
2018-03-30T20:34:00.857Z,7.40
2018-03-30T20:36:28.887Z,7.60
2018-03-30T20:38:56.026Z,7.60
2018-03-30T20:41:23.417Z,7.60
2018-03-30T20:43:50.662Z,7.50
2018-03-30T20:46:17.832Z,7.50
2018-03-30T20:48:45.177Z,7.50
2018-03-30T20:51:12.425Z,7.50
2018-03-30T20:53:39.994Z,7.30
2018-03-30T20:56:07.169Z,7.50
2018-03-30T20:58:34.319Z,7.50
2018-03-30T21:01:01.665Z,7.50
2018-03-30T21:03:28.948Z,7.50
2018-03-30T21:05:56.101Z,7.40
2018-03-30T21:08:24.124Z,7.40
2018-03-30T21:10:51.992Z,7.40
2018-03-30T21:13:19.264Z,7.40
2018-03-30T21:15:46.412Z,7.40
2018-03-30T21:18:13.587Z,7.30
2018-03-30T21:20:40.723Z,7.30
2018-03-30T21:23:08.055Z,7.40
2018-03-30T21:25:35.329Z,7.30
2018-03-30T21:28:02.603Z,7.30
2018-03-30T21:30:30.632Z,7.10
2018-03-30T21:32:57.791Z,7.10
2018-03-30T21:35:25.040Z,7.20
2018-03-30T21:37:52.288Z,7.20
2018-03-30T21:40:19.645Z,7.20
2018-03-30T21:42:46.937Z,7.20
2018-03-30T21:45:14.152Z,7.20
2018-03-30T21:47:41.406Z,7.20
2018-03-30T21:50:08.554Z,7.20
2018-03-30T21:52:35.811Z,7.20
2018-03-30T21:55:02.950Z,7.20
2018-03-30T21:57:30.326Z,7.20
2018-03-30T21:59:57.489Z,7.20
2018-03-30T22:02:24.723Z,7.20
2018-03-30T22:04:53.841Z,7.10
2018-03-30T22:10:11.919Z,7.20
2018-03-30T22:12:39.974Z,7.10
2018-03-30T22:15:07.281Z,7.10
2018-03-30T22:17:34.533Z,7.10
2018-03-30T22:20:02.538Z,7.10
2018-03-30T22:22:29.809Z,7.10
2018-03-30T22:24:57.049Z,7.20
2018-03-30T22:27:24.293Z,7.10
2018-03-30T22:29:51.566Z,7.10
2018-03-30T22:32:18.901Z,7.10
2018-03-30T22:34:46.158Z,7.10
2018-03-30T22:37:13.333Z,7.10
2018-03-30T22:39:40.594Z,7.10
2018-03-30T22:42:07.818Z,7.10
2018-03-30T22:44:35.174Z,7.10
2018-03-30T22:47:02.323Z,7.10
2018-03-30T22:49:29.601Z,7.10
2018-03-30T22:51:56.844Z,7.10
2018-03-30T22:54:24.080Z,7.10
2018-03-30T22:56:51.256Z,7.10
2018-03-30T22:59:18.395Z,7.00
2018-03-30T23:01:45.578Z,7.00
2018-03-30T23:04:13.526Z,7.00
2018-03-30T23:06:40.862Z,7.00
2018-03-30T23:09:08.013Z,7.00
2018-03-30T23:11:35.158Z,7.00
2018-03-30T23:14:02.447Z,7.00
2018-03-30T23:16:29.771Z,7.00
2018-03-30T23:18:57.048Z,7.00
2018-03-30T23:21:24.179Z,7.10
2018-03-30T23:23:51.382Z,7.10
2018-03-30T23:26:19.401Z,7.00
2018-03-30T23:28:46.550Z,7.00
2018-03-30T23:31:13.724Z,7.00
2018-03-30T23:33:41.060Z,7.00
2018-03-30T23:36:08.280Z,6.90
2018-03-30T23:38:35.491Z,6.90
2018-03-30T23:41:03.541Z,6.80
2018-03-30T23:43:30.719Z,6.80
2018-03-30T23:45:58.223Z,6.80
2018-03-30T23:48:25.510Z,6.80
2018-03-30T23:50:52.788Z,6.70
2018-03-30T23:53:20.723Z,6.60
2018-03-30T23:55:48.003Z,6.60
2018-03-30T23:58:15.337Z,6.60
